createdAt,value
2022-08-26T00:02:13.730Z,8.93
2022-08-26T00:04:43.846Z,10.02
2022-08-26T00:07:12.376Z,8.77
2022-08-26T00:09:40.782Z,8.90
2022-08-26T00:12:12.378Z,9.45
2022-08-26T00:14:41.813Z,9.18
2022-08-26T00:17:11.639Z,8.13
2022-08-26T00:19:39.885Z,9.40
2022-08-26T00:22:08.780Z,9.32
2022-08-26T00:24:37.003Z,8.27
2022-08-26T00:27:06.468Z,8.95
2022-08-26T00:29:37.630Z,9.57
2022-08-26T00:32:07.038Z,8.80
2022-08-26T00:34:36.864Z,9.02
2022-08-26T00:37:08.943Z,9.75
2022-08-26T00:39:39.097Z,9.05
2022-08-26T00:42:08.396Z,8.10
2022-08-26T00:44:36.788Z,9.52
2022-08-26T00:47:08.297Z,9.40
2022-08-26T00:49:40.503Z,9.40
2022-08-26T00:52:13.188Z,8.98
2022-08-26T00:54:46.666Z,8.52
2022-08-26T00:57:19.212Z,8.93
2022-08-26T00:59:52.243Z,9.57
2022-08-26T01:02:21.800Z,10.00
2022-08-26T01:04:55.713Z,9.27
2022-08-26T01:07:27.564Z,9.95
2022-08-26T01:09:59.821Z,9.98
2022-08-26T01:12:32.377Z,8.90
2022-08-26T01:15:02.094Z,9.07
2022-08-26T01:17:30.905Z,10.18
2022-08-26T01:20:07.426Z,9.35
2022-08-26T01:22:47.225Z,10.25
2022-08-26T01:25:16.076Z,9.05
2022-08-26T01:27:44.929Z,9.63
2022-08-26T01:30:18.508Z,9.95
2022-08-26T01:32:47.799Z,9.68
2022-08-26T01:35:16.373Z,9.95
2022-08-26T01:37:48.787Z,11.02
2022-08-26T01:40:21.685Z,9.80
2022-08-26T01:42:50.551Z,10.88
2022-08-26T01:45:23.684Z,9.65
2022-08-26T01:47:56.859Z,10.48
2022-08-26T01:50:30.612Z,9.75
2022-08-26T01:53:12.756Z,10.23
2022-08-26T01:55:45.888Z,9.85
2022-08-26T01:58:21.862Z,9.30
2022-08-26T02:00:51.408Z,9.88
2022-08-26T02:03:22.208Z,10.65
2022-08-26T02:05:54.409Z,10.55
2022-08-26T02:08:29.037Z,10.13
2022-08-26T02:10:57.301Z,10.00
2022-08-26T02:13:30.043Z,10.18
2022-08-26T02:16:00.810Z,9.50
2022-08-26T02:18:31.327Z,9.63
2022-08-26T02:21:00.346Z,10.35
2022-08-26T02:23:29.934Z,10.10
2022-08-26T02:26:07.085Z,9.73
2022-08-26T02:28:40.469Z,9.23
2022-08-26T02:31:09.410Z,9.43
2022-08-26T02:33:38.356Z,12.65
2022-08-26T02:36:13.460Z,11.93
2022-08-26T02:38:45.108Z,11.23
2022-08-26T02:41:14.923Z,12.07
2022-08-26T02:43:43.279Z,10.68
2022-08-26T02:46:12.068Z,10.30
2022-08-26T02:48:50.155Z,9.65
2022-08-26T02:51:18.669Z,10.25
2022-08-26T02:53:48.258Z,10.77
2022-08-26T02:56:16.614Z,10.38
2022-08-26T02:58:44.960Z,10.82
2022-08-26T03:01:22.056Z,11.25
2022-08-26T03:03:50.966Z,9.77
2022-08-26T03:06:19.749Z,9.85
2022-08-26T03:08:49.997Z,10.57
2022-08-26T03:11:19.724Z,10.73
2022-08-26T03:13:48.039Z,10.80
2022-08-26T03:16:16.582Z,10.90
2022-08-26T03:18:51.983Z,10.45
2022-08-26T03:21:22.197Z,10.80
2022-08-26T03:23:51.880Z,10.85
2022-08-26T03:26:20.251Z,11.57
2022-08-26T03:29:07.900Z,12.48
2022-08-26T03:31:38.525Z,13.88
2022-08-26T03:34:08.594Z,13.02
2022-08-26T03:36:36.788Z,12.18
2022-08-26T03:39:06.758Z,13.60
2022-08-26T03:41:35.869Z,13.48
2022-08-26T03:44:04.990Z,14.63
2022-08-26T03:46:34.839Z,13.40
2022-08-26T03:49:05.175Z,13.32
2022-08-26T03:51:34.491Z,12.55
2022-08-26T03:54:09.035Z,13.40
2022-08-26T03:56:38.467Z,13.15
2022-08-26T03:59:08.880Z,14.52
2022-08-26T04:01:37.339Z,13.30
2022-08-26T04:04:06.891Z,13.32
2022-08-26T04:06:37.885Z,14.35
2022-08-26T04:09:10.549Z,12.95
2022-08-26T04:11:39.694Z,13.45
2022-08-26T04:14:11.282Z,13.18
2022-08-26T04:16:39.816Z,13.30
2022-08-26T04:19:08.646Z,13.50
2022-08-26T04:21:38.252Z,14.00
2022-08-26T04:24:11.365Z,13.95
2022-08-26T04:26:43.627Z,14.40
2022-08-26T04:29:15.406Z,12.25
2022-08-26T04:31:43.880Z,12.82
2022-08-26T04:34:14.038Z,13.18
2022-08-26T04:36:43.091Z,13.52
2022-08-26T04:39:14.217Z,12.90
2022-08-26T04:41:44.471Z,13.82
2022-08-26T04:44:13.731Z,13.98
2022-08-26T04:46:43.873Z,13.48
2022-08-26T04:49:13.268Z,12.60
2022-08-26T04:51:42.065Z,13.07
2022-08-26T04:54:12.346Z,12.70
2022-08-26T04:56:42.571Z,12.80
2022-08-26T04:59:16.776Z,13.45
2022-08-26T05:01:47.010Z,14.60
2022-08-26T05:04:18.765Z,13.68
2022-08-26T05:06:47.581Z,13.70
2022-08-26T05:09:15.985Z,13.23
2022-08-26T05:11:45.602Z,12.27
2022-08-26T05:14:18.532Z,13.77
2022-08-26T05:16:47.819Z,13.63
2022-08-26T05:19:18.720Z,12.43
2022-08-26T05:21:49.277Z,13.25
2022-08-26T05:24:18.900Z,12.88
2022-08-26T05:26:48.279Z,13.23
2022-08-26T05:29:18.582Z,12.95
2022-08-26T05:31:52.428Z,12.93
2022-08-26T05:34:21.732Z,12.75
2022-08-26T05:36:50.178Z,12.63
2022-08-26T05:39:18.474Z,13.15
2022-08-26T05:41:47.124Z,12.63
2022-08-26T05:44:18.709Z,13.00
2022-08-26T05:46:48.395Z,14.15
2022-08-26T05:49:20.335Z,13.25
2022-08-26T05:51:50.906Z,16.20
2022-08-26T05:54:21.924Z,14.07
2022-08-26T05:56:52.045Z,14.02
2022-08-26T05:59:24.115Z,12.75
2022-08-26T06:01:55.578Z,13.18
2022-08-26T06:04:28.110Z,12.40
2022-08-26T06:06:58.829Z,12.85
2022-08-26T06:09:27.670Z,12.73
2022-08-26T06:11:58.698Z,11.98
2022-08-26T06:14:27.079Z,12.50
2022-08-26T06:16:56.659Z,12.45
2022-08-26T06:19:25.093Z,12.60
2022-08-26T06:22:23.414Z,11.00
2022-08-26T06:25:09.899Z,10.95
2022-08-26T06:27:38.745Z,10.90
2022-08-26T06:30:09.871Z,10.55
2022-08-26T06:32:39.482Z,10.50
2022-08-26T06:35:11.901Z,11.98
2022-08-26T06:37:41.185Z,11.00
2022-08-26T06:40:11.451Z,10.80
2022-08-26T06:42:40.047Z,10.85
2022-08-26T06:45:09.426Z,10.10
2022-08-26T06:47:40.995Z,10.70
2022-08-26T06:50:09.808Z,10.63
2022-08-26T06:52:38.040Z,10.30
2022-08-26T06:55:07.496Z,10.55
2022-08-26T06:57:37.711Z,10.68
2022-08-26T07:00:11.056Z,10.52
2022-08-26T07:02:46.106Z,10.65
2022-08-26T07:05:15.968Z,10.20
2022-08-26T07:07:44.307Z,10.90
2022-08-26T07:10:12.555Z,10.63
2022-08-26T07:12:41.421Z,11.40
2022-08-26T07:15:10.905Z,10.93
2022-08-26T07:17:39.368Z,18.65
2022-08-26T07:20:11.804Z,18.27
2022-08-26T07:22:40.562Z,11.32
2022-08-26T07:25:11.403Z,11.13
2022-08-26T07:27:40.148Z,10.32
2022-08-26T07:30:09.571Z,9.35
2022-08-26T07:32:43.434Z,10.02
2022-08-26T07:35:14.093Z,10.82
2022-08-26T07:37:42.455Z,9.25
2022-08-26T07:40:11.924Z,9.07
2022-08-26T07:42:40.473Z,8.63
2022-08-26T07:45:09.100Z,9.40
2022-08-26T07:47:37.908Z,8.65
2022-08-26T07:50:07.108Z,8.68
2022-08-26T07:52:37.588Z,10.15
2022-08-26T07:55:08.389Z,8.68
2022-08-26T07:57:36.930Z,8.50
2022-08-26T08:00:12.615Z,9.38
2022-08-26T08:02:41.363Z,7.72
2022-08-26T08:05:10.003Z,8.20
2022-08-26T08:07:44.590Z,8.35
2022-08-26T08:10:16.104Z,8.65
2022-08-26T08:12:44.976Z,7.75
2022-08-26T08:15:15.364Z,9.07
2022-08-26T08:17:44.543Z,10.43
2022-08-26T08:20:15.150Z,9.95
2022-08-26T08:22:45.347Z,9.23
2022-08-26T08:25:15.951Z,8.98
2022-08-26T08:27:45.651Z,13.90
2022-08-26T08:30:15.495Z,10.18
2022-08-26T08:32:52.311Z,8.32
2022-08-26T08:35:22.510Z,9.10
2022-08-26T08:37:55.440Z,8.75
2022-08-26T08:40:26.925Z,9.25
2022-08-26T08:43:00.563Z,8.02
2022-08-26T08:45:36.578Z,8.70
2022-08-26T08:48:11.687Z,7.85
2022-08-26T08:50:45.688Z,7.95
2022-08-26T08:53:21.518Z,7.65
2022-08-26T08:56:00.135Z,7.40
2022-08-26T08:58:36.456Z,7.93
2022-08-26T09:01:09.845Z,7.68
2022-08-26T09:03:47.996Z,7.90
2022-08-26T09:06:18.852Z,7.75
2022-08-26T09:08:50.188Z,7.43
2022-08-26T09:11:20.915Z,6.93
2022-08-26T09:13:52.731Z,6.75
2022-08-26T09:16:25.852Z,7.78
2022-08-26T09:19:14.436Z,7.53
2022-08-26T09:21:43.032Z,7.78
2022-08-26T09:24:14.185Z,7.88
2022-08-26T09:26:47.429Z,7.95
2022-08-26T09:29:23.355Z,7.45
2022-08-26T09:31:52.891Z,7.55
2022-08-26T09:34:25.283Z,7.00
2022-08-26T09:36:55.032Z,7.30
2022-08-26T09:39:42.800Z,7.55
2022-08-26T09:42:14.126Z,7.00
2022-08-26T09:44:57.668Z,7.10
2022-08-26T09:47:31.779Z,7.60
2022-08-26T09:50:09.405Z,7.38
2022-08-26T09:52:40.525Z,7.10
2022-08-26T09:55:23.784Z,6.53
2022-08-26T09:57:54.020Z,6.25
2022-08-26T10:00:32.785Z,6.63
2022-08-26T10:03:03.710Z,6.90
2022-08-26T10:05:43.895Z,6.80
2022-08-26T10:08:34.599Z,5.47
2022-08-26T10:11:20.195Z,4.68
2022-08-26T10:13:52.340Z,6.95
2022-08-26T10:16:24.106Z,5.78
2022-08-26T10:19:03.164Z,4.50
2022-08-26T10:21:39.590Z,5.55
2022-08-26T10:24:11.445Z,4.57
2022-08-26T10:26:49.761Z,4.60
2022-08-26T10:29:24.032Z,5.03
2022-08-26T10:31:58.777Z,4.55
2022-08-26T10:34:33.044Z,4.43
2022-08-26T10:37:14.990Z,4.53
2022-08-26T10:39:53.038Z,4.03
2022-08-26T10:42:35.398Z,3.97
2022-08-26T10:45:11.933Z,4.18
2022-08-26T10:47:49.175Z,3.83
2022-08-26T10:50:18.868Z,4.05
2022-08-26T10:53:00.268Z,4.25
2022-08-26T10:55:37.126Z,3.67
2022-08-26T10:58:26.574Z,4.30
2022-08-26T11:01:22.744Z,4.50
2022-08-26T11:03:58.744Z,4.45
2022-08-26T11:06:29.918Z,4.47
2022-08-26T11:08:59.571Z,4.93
2022-08-26T11:11:55.120Z,4.47
2022-08-26T11:14:53.485Z,4.45
2022-08-26T11:17:57.359Z,4.28
2022-08-26T11:20:35.706Z,4.20
2022-08-26T11:23:40.393Z,3.80
2022-08-26T11:26:35.622Z,4.50
2022-08-26T11:29:12.038Z,4.45
2022-08-26T11:31:57.382Z,4.72
2022-08-26T11:34:59.200Z,4.53
2022-08-26T11:37:36.195Z,5.07
2022-08-26T11:40:11.010Z,4.43
2022-08-26T11:42:43.465Z,4.88
2022-08-26T11:45:20.237Z,4.10
2022-08-26T11:47:50.482Z,4.85
2022-08-26T11:50:21.059Z,4.68
2022-08-26T11:52:53.953Z,4.32
2022-08-26T11:55:23.328Z,4.10
2022-08-26T11:57:56.239Z,4.38
2022-08-26T12:00:33.699Z,4.18
2022-08-26T12:03:09.834Z,4.07
2022-08-26T12:05:44.612Z,4.10
2022-08-26T12:08:17.423Z,4.30
2022-08-26T12:10:46.173Z,4.20
2022-08-26T12:13:23.262Z,4.53
2022-08-26T12:15:56.019Z,4.00
2022-08-26T12:18:29.529Z,4.28
2022-08-26T12:21:00.901Z,4.13
2022-08-26T12:23:41.385Z,4.15
2022-08-26T12:26:14.158Z,4.00
2022-08-26T12:28:47.691Z,4.13
2022-08-26T12:31:26.857Z,4.30
2022-08-26T12:33:59.190Z,4.18
2022-08-26T12:36:31.550Z,3.28
2022-08-26T12:39:08.814Z,3.72
2022-08-26T12:41:49.986Z,3.47
2022-08-26T12:44:54.271Z,3.90
2022-08-26T12:47:30.951Z,3.38
2022-08-26T12:50:18.481Z,3.53
2022-08-26T12:52:56.719Z,3.40
2022-08-26T12:55:35.322Z,3.72
2022-08-26T12:58:21.243Z,3.42
2022-08-26T13:00:50.719Z,6.70
2022-08-26T13:03:38.907Z,4.10
2022-08-26T13:06:18.285Z,3.85
2022-08-26T13:08:47.726Z,3.72
2022-08-26T13:11:20.343Z,7.25
2022-08-26T13:13:51.906Z,4.40
2022-08-26T13:16:23.133Z,4.13
2022-08-26T13:18:54.205Z,3.50
2022-08-26T13:21:26.139Z,3.30
2022-08-26T13:23:54.893Z,3.00
2022-08-26T13:26:23.736Z,3.30
2022-08-26T13:29:01.275Z,3.30
2022-08-26T13:31:32.249Z,3.70
2022-08-26T13:34:02.015Z,3.78
2022-08-26T13:36:32.555Z,3.50
2022-08-26T13:39:01.040Z,3.45
2022-08-26T13:41:29.874Z,3.92
2022-08-26T13:43:59.437Z,3.03
2022-08-26T13:46:28.883Z,3.72
2022-08-26T13:48:57.308Z,3.15
2022-08-26T13:51:27.177Z,3.80
2022-08-26T13:53:57.614Z,4.10
2022-08-26T13:56:27.416Z,4.30
2022-08-26T13:58:56.293Z,5.03
2022-08-26T14:01:25.090Z,5.22
2022-08-26T14:03:53.423Z,4.10
2022-08-26T14:06:22.022Z,4.78
2022-08-26T14:08:50.834Z,3.67
2022-08-26T14:11:22.096Z,4.13
2022-08-26T14:13:50.599Z,3.80
2022-08-26T14:16:24.547Z,3.35
2022-08-26T14:18:53.166Z,8.40
2022-08-26T14:21:22.027Z,4.53
2022-08-26T14:23:50.305Z,4.70
2022-08-26T14:26:28.728Z,3.78
2022-08-26T14:28:59.674Z,3.53
2022-08-26T14:31:29.259Z,3.13
2022-08-26T14:33:59.061Z,3.58
2022-08-26T14:36:32.171Z,3.17
2022-08-26T14:39:02.884Z,3.13
2022-08-26T14:41:34.202Z,3.33
2022-08-26T14:44:05.600Z,3.38
2022-08-26T14:46:40.258Z,3.58
2022-08-26T14:49:10.687Z,3.00
2022-08-26T14:51:39.656Z,4.32
2022-08-26T14:54:14.744Z,4.43
2022-08-26T14:56:48.743Z,3.30
2022-08-26T14:59:20.709Z,3.63
2022-08-26T15:01:50.952Z,3.20
2022-08-26T15:04:20.384Z,3.60
2022-08-26T15:06:49.149Z,3.40
2022-08-26T15:09:17.860Z,3.15
2022-08-26T15:11:47.770Z,3.17
2022-08-26T15:14:19.509Z,3.50
2022-08-26T15:16:49.502Z,4.80
2022-08-26T15:19:18.634Z,5.50
2022-08-26T15:21:47.657Z,3.90
2022-08-26T15:24:18.615Z,3.78
2022-08-26T15:26:49.410Z,3.70
2022-08-26T15:29:18.649Z,3.78
2022-08-26T15:31:47.528Z,3.50
2022-08-26T15:34:17.197Z,7.35
2022-08-26T15:36:47.052Z,3.90
2022-08-26T15:39:17.120Z,3.65
2022-08-26T15:41:45.492Z,3.58
2022-08-26T15:44:19.651Z,3.22
2022-08-26T15:46:49.490Z,3.75
2022-08-26T15:49:19.000Z,3.28
2022-08-26T15:51:50.286Z,3.17
2022-08-26T15:54:21.838Z,3.45
2022-08-26T15:56:52.160Z,3.38
2022-08-26T15:59:23.676Z,3.25
2022-08-26T16:01:52.494Z,3.58
2022-08-26T16:04:21.055Z,3.50
2022-08-26T16:06:52.026Z,3.38
2022-08-26T16:09:22.844Z,3.17
2022-08-26T16:11:59.469Z,3.10
2022-08-26T16:14:29.050Z,3.50
2022-08-26T16:17:00.254Z,3.42
2022-08-26T16:19:28.565Z,3.35
2022-08-26T16:21:56.784Z,3.92
2022-08-26T16:24:30.222Z,3.00
2022-08-26T16:26:59.042Z,3.25
2022-08-26T16:29:28.900Z,3.55
2022-08-26T16:31:57.352Z,3.45
2022-08-26T16:34:25.609Z,3.05
2022-08-26T16:36:54.465Z,3.10
2022-08-26T16:39:22.712Z,3.30
2022-08-26T16:41:50.967Z,3.67
2022-08-26T16:44:19.546Z,2.90
2022-08-26T16:46:49.540Z,3.33
2022-08-26T16:49:17.976Z,2.60
2022-08-26T16:51:46.781Z,3.05
2022-08-26T16:54:15.037Z,3.33
2022-08-26T16:56:43.453Z,3.80
2022-08-26T16:59:12.035Z,15.15
2022-08-26T17:01:40.356Z,8.50
2022-08-26T17:04:10.491Z,4.60
2022-08-26T17:06:38.764Z,3.42
2022-08-26T17:09:07.161Z,3.55
2022-08-26T17:11:36.132Z,3.47
2022-08-26T17:14:04.932Z,3.20
2022-08-26T17:16:33.497Z,5.85
2022-08-26T17:19:02.321Z,6.78
2022-08-26T17:21:34.410Z,5.07
2022-08-26T17:24:03.060Z,4.10
2022-08-26T17:26:31.719Z,3.30
2022-08-26T17:29:00.012Z,4.05
2022-08-26T17:31:28.622Z,3.67
2022-08-26T17:33:56.989Z,3.53
2022-08-26T17:36:28.009Z,3.42
2022-08-26T17:38:59.637Z,3.50
2022-08-26T17:41:28.265Z,3.40
2022-08-26T17:43:57.464Z,3.63
2022-08-26T17:46:26.110Z,4.00
2022-08-26T17:48:54.481Z,9.32
2022-08-26T17:51:23.494Z,6.13
2022-08-26T17:53:52.749Z,10.73
2022-08-26T17:56:25.435Z,8.43
2022-08-26T17:58:55.189Z,7.88
2022-08-26T18:01:27.491Z,8.20
2022-08-26T18:04:00.267Z,6.03
2022-08-26T18:06:30.321Z,5.82
2022-08-26T18:08:59.816Z,7.53
2022-08-26T18:11:30.109Z,26.33
2022-08-26T18:13:59.888Z,16.08
2022-08-26T18:16:29.851Z,12.50
2022-08-26T18:18:58.399Z,16.00
2022-08-26T18:21:28.323Z,8.52
2022-08-26T18:23:56.921Z,12.27
2022-08-26T18:26:27.590Z,7.57
2022-08-26T18:28:57.674Z,7.75
2022-08-26T18:31:26.642Z,6.55
2022-08-26T18:33:55.218Z,5.80
2022-08-26T18:36:25.274Z,5.80
2022-08-26T18:38:54.527Z,5.53
2022-08-26T18:41:24.669Z,6.30
2022-08-26T18:43:54.072Z,5.70
2022-08-26T18:46:26.306Z,4.60
2022-08-26T18:48:55.865Z,15.30
2022-08-26T18:51:26.903Z,7.82
2022-08-26T18:53:55.124Z,5.38
2022-08-26T18:56:23.449Z,4.53
2022-08-26T18:58:52.294Z,6.32
2022-08-26T19:01:25.507Z,5.35
2022-08-26T19:03:57.949Z,4.93
2022-08-26T19:06:27.540Z,4.40
2022-08-26T19:08:58.141Z,4.90
2022-08-26T19:11:32.333Z,5.75
2022-08-26T19:14:07.963Z,5.55
2022-08-26T19:16:38.696Z,7.35
2022-08-26T19:19:08.911Z,5.55
2022-08-26T19:21:37.903Z,5.53
2022-08-26T19:24:09.293Z,6.20
2022-08-26T19:26:38.956Z,5.05
2022-08-26T19:29:07.564Z,4.70
2022-08-26T19:31:35.963Z,5.32
2022-08-26T19:34:05.354Z,4.85
2022-08-26T19:36:35.936Z,5.38
2022-08-26T19:39:05.719Z,7.13
2022-08-26T19:41:38.236Z,6.25
2022-08-26T19:44:09.999Z,5.45
2022-08-26T19:49:12.083Z,4.43
2022-08-26T19:51:41.784Z,4.97
2022-08-26T19:54:10.029Z,6.38
2022-08-26T19:56:38.445Z,7.75
2022-08-26T19:59:06.786Z,7.97
2022-08-26T20:01:35.154Z,6.72
2022-08-26T20:04:04.122Z,7.20
2022-08-26T20:06:32.470Z,6.18
2022-08-26T20:09:02.026Z,6.60
2022-08-26T20:11:31.096Z,6.55
2022-08-26T20:14:00.569Z,6.30
2022-08-26T20:16:28.770Z,5.40
2022-08-26T20:19:14.283Z,5.70
2022-08-26T20:21:43.124Z,5.68
2022-08-26T20:24:15.443Z,5.68
2022-08-26T20:26:45.592Z,5.57
2022-08-26T20:29:15.417Z,6.22
2022-08-26T20:31:44.745Z,6.10
2022-08-26T20:34:14.256Z,5.18
2022-08-26T20:36:43.794Z,6.50
2022-08-26T20:39:14.119Z,6.20
2022-08-26T20:41:43.880Z,6.00
2022-08-26T20:44:13.209Z,6.47
2022-08-26T20:46:41.791Z,5.72
2022-08-26T20:49:10.510Z,7.57
2022-08-26T20:51:38.838Z,6.40
2022-08-26T20:54:07.906Z,6.40
2022-08-26T20:56:38.071Z,6.30
2022-08-26T20:59:08.038Z,5.95
2022-08-26T21:01:42.199Z,6.63
2022-08-26T21:04:13.774Z,6.07
2022-08-26T21:06:47.249Z,5.80
2022-08-26T21:09:21.490Z,6.78
2022-08-26T21:11:51.815Z,6.47
2022-08-26T21:14:22.821Z,6.35
2022-08-26T21:16:54.452Z,5.50
2022-08-26T21:19:22.731Z,6.82
2022-08-26T21:21:51.557Z,6.45
2022-08-26T21:24:20.115Z,7.45
2022-08-26T21:26:50.112Z,6.60
2022-08-26T21:29:18.570Z,6.07
2022-08-26T21:31:47.130Z,6.65
2022-08-26T21:34:17.341Z,7.65
2022-08-26T21:36:46.192Z,7.38
2022-08-26T21:39:15.120Z,7.30
2022-08-26T21:41:44.400Z,6.93
2022-08-26T21:44:15.622Z,7.72
2022-08-26T21:46:45.424Z,7.05
2022-08-26T21:49:15.882Z,6.75
2022-08-26T21:51:46.789Z,6.10
2022-08-26T21:54:16.428Z,6.00
2022-08-26T21:56:47.178Z,6.25
2022-08-26T21:59:18.785Z,6.22
2022-08-26T22:01:47.845Z,6.57
2022-08-26T22:04:17.314Z,5.90
2022-08-26T22:06:47.700Z,7.00
2022-08-26T22:09:19.104Z,6.43
2022-08-26T22:11:47.985Z,6.63
2022-08-26T22:14:19.239Z,6.40
2022-08-26T22:16:50.724Z,6.38
2022-08-26T22:19:20.958Z,6.40
2022-08-26T22:21:53.388Z,6.18
2022-08-26T22:24:24.337Z,6.60
2022-08-26T22:26:52.775Z,6.93
2022-08-26T22:29:22.943Z,6.93
2022-08-26T22:31:52.448Z,6.05
2022-08-26T22:34:23.078Z,6.85
2022-08-26T22:36:52.137Z,6.47
2022-08-26T22:39:23.378Z,6.75
2022-08-26T22:41:52.557Z,6.85
2022-08-26T22:44:23.086Z,6.97
2022-08-26T22:46:54.699Z,6.78
2022-08-26T22:49:23.021Z,8.25
2022-08-26T22:51:51.967Z,7.18
2022-08-26T22:54:20.274Z,7.10
2022-08-26T22:56:48.597Z,7.32
2022-08-26T22:59:17.900Z,7.45
2022-08-26T23:01:47.922Z,7.90
2022-08-26T23:04:16.423Z,7.28
2022-08-26T23:06:47.736Z,7.22
2022-08-26T23:09:18.071Z,7.85
2022-08-26T23:11:48.338Z,7.40
2022-08-26T23:14:18.309Z,6.72
2022-08-26T23:16:48.370Z,6.95
2022-08-26T23:19:20.757Z,7.25
2022-08-26T23:21:49.795Z,7.03
2022-08-26T23:24:18.323Z,6.47
2022-08-26T23:26:47.412Z,7.22
2022-08-26T23:29:17.369Z,7.45
2022-08-26T23:31:47.805Z,7.07
2022-08-26T23:34:33.631Z,7.15
2022-08-26T23:37:02.051Z,6.88
2022-08-26T23:39:33.550Z,7.95
2022-08-26T23:42:03.331Z,7.22
2022-08-26T23:44:32.141Z,7.07
2022-08-26T23:47:03.281Z,7.60
2022-08-26T23:49:31.866Z,7.57
2022-08-26T23:52:17.876Z,7.78
2022-08-26T23:54:48.778Z,7.03
2022-08-26T23:57:19.621Z,6.88
2022-08-26T23:59:48.943Z,6.70
